Time;durP1;ratioP1;P1;durP2;ratioP2;P2;SDS_P1;SDS_P2;PMS_P1;PMS_P2;Temp;Humidity;BMP_temperature;BMP_pressure;BME280_temperature;BME280_humidity;BME280_pressure;Samples;Min_cycle;Max_cycle;Signal;HPM_P1;HPM_P2
2023/01/02 00:01:32;;;;;;;3.90;1.90;;;9.50;98.00;;;;;;5014732;28;20459;-72
2023/01/02 00:03:59;;;;;;;3.83;2.17;;;9.50;98.00;;;;;;5015028;28;20466;-71
2023/01/02 00:06:26;;;;;;;3.83;2.20;;;9.60;98.00;;;;;;5014999;28;20463;-71
2023/01/02 00:08:53;;;;;;;2.47;1.60;;;9.60;98.00;;;;;;5013726;28;20866;-71
2023/01/02 00:11:20;;;;;;;4.33;2.33;;;9.50;98.00;;;;;;5014891;28;20451;-72
2023/01/02 00:13:47;;;;;;;3.70;2.30;;;9.60;98.00;;;;;;5015157;28;20517;-71
2023/01/02 00:16:16;;;;;;;3.00;1.70;;;9.40;98.00;;;;;;5015038;28;20464;-72
2023/01/02 00:18:43;;;;;;;4.83;2.43;;;9.50;98.00;;;;;;5015128;28;20459;-71
2023/01/02 00:21:10;;;;;;;5.00;2.23;;;9.40;98.00;;;;;;4997519;28;20474;-71
2023/01/02 00:23:37;;;;;;;2.50;2.00;;;9.40;98.00;;;;;;5014623;28;20567;-71
2023/01/02 00:26:04;;;;;;;4.50;2.20;;;9.30;98.00;;;;;;5014675;28;20821;-71
2023/01/02 00:28:32;;;;;;;14.10;3.20;;;9.30;98.00;;;;;;5014462;28;20464;-71
2023/01/02 00:31:04;;;;;;;7.40;3.43;;;9.40;98.00;;;;;;5014631;28;20459;-72
2023/01/02 00:33:33;;;;;;;3.07;2.00;;;9.40;98.00;;;;;;5014529;28;20456;-72
2023/01/02 00:36:04;;;;;;;4.97;2.13;;;9.40;98.00;;;;;;5014463;28;20452;-72
2023/01/02 00:38:31;;;;;;;2.87;1.90;;;9.40;98.00;;;;;;5014386;28;20521;-71
2023/01/02 00:40:59;;;;;;;7.90;2.30;;;9.40;98.00;;;;;;5014219;28;21037;-72
2023/01/02 00:43:26;;;;;;;3.67;2.10;;;9.40;98.00;;;;;;4996726;28;21087;-71
2023/01/02 00:45:53;;;;;;;2.17;2.03;;;9.50;98.00;;;;;;5014489;28;20471;-71
2023/01/02 00:48:21;;;;;;;4.40;1.90;;;9.50;98.00;;;;;;5014393;28;20455;-71
2023/01/02 00:50:49;;;;;;;2.40;1.90;;;9.40;98.00;;;;;;5014153;28;20455;-72
2023/01/02 00:53:17;;;;;;;2.73;1.73;;;9.40;98.00;;;;;;5013591;28;20509;-71
2023/01/02 00:55:45;;;;;;;2.80;2.00;;;9.40;98.00;;;;;;5014123;28;20538;-71
2023/01/02 00:58:13;;;;;;;2.57;1.83;;;9.40;98.00;;;;;;5013893;28;20451;-71
2023/01/02 01:00:44;;;;;;;4.80;3.13;;;9.40;98.00;;;;;;5014202;28;20462;-71
2023/01/02 01:03:11;;;;;;;3.57;2.37;;;9.30;98.00;;;;;;4997003;28;20490;-72
2023/01/02 01:05:39;;;;;;;2.47;1.70;;;9.30;98.00;;;;;;5013967;28;20467;-71
2023/01/02 01:08:07;;;;;;;3.77;2.20;;;9.20;98.00;;;;;;5013842;28;20551;-72
2023/01/02 01:10:36;;;;;;;3.50;2.30;;;9.30;98.00;;;;;;5013904;28;20554;-72
2023/01/02 01:13:03;;;;;;;6.13;2.87;;;9.30;98.00;;;;;;5014046;28;20462;-71
2023/01/02 01:15:31;;;;;;;3.03;2.00;;;9.20;98.00;;;;;;5013875;28;20452;-71
2023/01/02 01:17:58;;;;;;;1.80;1.80;;;9.20;98.00;;;;;;5013708;28;20457;-71
2023/01/02 01:20:25;;;;;;;4.23;2.20;;;9.20;98.00;;;;;;5013626;28;20451;-71
2023/01/02 01:22:52;;;;;;;4.20;2.00;;;9.20;98.00;;;;;;5013451;28;20898;-71
2023/01/02 01:25:20;;;;;;;2.37;1.90;;;9.20;98.00;;;;;;5013763;28;20464;-71
2023/01/02 01:27:47;;;;;;;3.60;2.10;;;9.00;98.00;;;;;;4995773;28;20509;-71
2023/01/02 01:30:15;;;;;;;3.37;2.10;;;9.10;98.00;;;;;;5013527;28;20468;-72
2023/01/02 01:32:42;;;;;;;2.87;2.20;;;9.00;98.00;;;;;;5013397;28;20465;-72
2023/01/02 01:35:09;;;;;;;5.93;2.40;;;9.00;98.00;;;;;;5013404;28;20460;-71
2023/01/02 01:37:38;;;;;;;2.33;1.67;;;9.00;98.00;;;;;;4995738;28;20464;-71
2023/01/02 01:40:07;;;;;;;2.43;1.80;;;8.90;98.00;;;;;;5013256;28;20542;-71
2023/01/02 01:42:36;;;;;;;2.70;1.93;;;8.80;98.00;;;;;;4995510;28;20872;-72
2023/01/02 01:45:03;;;;;;;2.63;1.70;;;8.80;98.00;;;;;;5013265;28;20465;-71
2023/01/02 01:47:40;;;;;;;3.67;2.10;;;8.80;98.00;;;;;;5013069;28;20515;-72
2023/01/02 01:50:11;;;;;;;2.20;1.73;;;9.00;98.00;;;;;;5013066;28;20476;-71
2023/01/02 01:52:45;;;;;;;3.60;2.03;;;8.90;98.00;;;;;;5013146;28;20804;-71
2023/01/02 01:55:18;;;;;;;4.33;2.23;;;8.90;98.00;;;;;;4995848;28;20459;-72
2023/01/02 01:57:52;;;;;;;2.13;1.80;;;8.80;98.00;;;;;;5012975;28;20462;-71
2023/01/02 02:00:20;;;;;;;2.83;2.13;;;8.60;98.00;;;;;;4995473;28;20945;-71
2023/01/02 02:02:52;;;;;;;2.50;1.70;;;8.60;98.00;;;;;;5013002;28;20496;-71
2023/01/02 02:05:23;;;;;;;2.47;1.90;;;8.50;98.00;;;;;;5012002;28;20956;-71
2023/01/02 02:08:00;;;;;;;2.60;1.73;;;8.50;98.00;;;;;;5012750;28;20473;-72
2023/01/02 02:10:27;;;;;;;4.23;2.07;;;8.50;98.00;;;;;;5012728;28;20517;-71
2023/01/02 02:12:55;;;;;;;2.37;1.70;;;8.60;98.00;;;;;;5012863;28;20460;-71
2023/01/02 02:15:31;;;;;;;6.10;2.20;;;8.50;98.00;;;;;;5012855;28;20466;-71
2023/01/02 02:18:08;;;;;;;1.97;1.60;;;8.40;98.00;;;;;;5012868;28;20942;-71
2023/01/02 02:20:44;;;;;;;2.67;1.90;;;8.50;98.00;;;;;;5012885;28;20534;-72
2023/01/02 02:23:33;;;;;;;2.60;2.30;;;8.50;98.00;;;;;;5012477;28;20895;-71
2023/01/02 02:26:33;;;;;;;2.07;1.70;;;8.50;98.00;;;;;;5012625;28;20467;-72
2023/01/02 02:29:28;;;;;;;2.50;1.47;;;8.80;98.00;;;;;;5012930;28;20467;-71
2023/01/02 02:32:06;;;;;;;1.60;1.30;;;8.90;98.00;;;;;;5013548;28;20539;-71
2023/01/02 02:34:43;;;;;;;2.43;1.60;;;9.00;98.00;;;;;;5012633;28;20462;-71
2023/01/02 02:37:17;;;;;;;2.27;1.73;;;9.10;98.00;;;;;;5013345;28;20464;-71
2023/01/02 02:39:54;;;;;;;1.63;1.37;;;9.20;98.00;;;;;;5012334;28;20463;-71
2023/01/02 02:42:32;;;;;;;2.63;1.70;;;9.30;98.00;;;;;;5012108;28;20473;-71
2023/01/02 02:45:06;;;;;;;3.83;2.13;;;9.50;98.00;;;;;;5012359;28;20547;-71
2023/01/02 02:47:43;;;;;;;4.40;2.30;;;9.50;98.00;;;;;;5012092;28;20965;-71
2023/01/02 02:50:16;;;;;;;3.20;1.70;;;9.20;98.00;;;;;;5012182;28;20466;-72
2023/01/02 02:52:48;;;;;;;2.30;1.60;;;9.00;98.00;;;;;;5012178;28;20939;-71
2023/01/02 02:55:22;;;;;;;3.63;1.83;;;8.80;98.00;;;;;;5012112;28;20447;-71
2023/01/02 02:57:50;;;;;;;2.63;1.60;;;8.70;98.00;;;;;;5012125;28;20460;-71
2023/01/02 03:00:19;;;;;;;3.93;1.40;;;8.50;98.00;;;;;;5011853;28;20455;-71
2023/01/02 03:02:48;;;;;;;2.63;1.87;;;8.60;98.00;;;;;;5011610;28;20837;-71
2023/01/02 03:05:20;;;;;;;2.23;1.50;;;8.60;98.00;;;;;;5011888;28;20455;-71
2023/01/02 03:07:53;;;;;;;2.50;1.60;;;8.60;98.00;;;;;;5011948;28;20533;-71
2023/01/02 03:10:29;;;;;;;4.07;2.03;;;8.70;98.00;;;;;;5011968;28;20503;-71
2023/01/02 03:13:08;;;;;;;2.13;1.60;;;8.70;98.00;;;;;;5011388;28;20466;-71
2023/01/02 03:15:41;;;;;;;2.00;1.50;;;8.70;98.00;;;;;;5011871;28;20463;-72
2023/01/02 03:18:19;;;;;;;2.63;1.57;;;8.60;98.00;;;;;;5011760;28;20465;-71
2023/01/02 03:20:53;;;;;;;2.17;1.50;;;8.60;98.00;;;;;;5011747;28;20463;-71
2023/01/02 03:23:23;;;;;;;2.47;1.30;;;8.70;98.00;;;;;;5011525;28;20497;-71
2023/01/02 03:25:51;;;;;;;2.70;1.60;;;8.80;98.00;;;;;;5011486;28;20466;-71
2023/01/02 03:28:22;;;;;;;3.10;1.93;;;8.80;98.00;;;;;;5011512;28;20478;-71
2023/01/02 03:30:54;;;;;;;1.93;1.40;;;8.80;98.00;;;;;;5011573;28;20459;-71
2023/01/02 03:33:29;;;;;;;2.13;1.57;;;8.80;98.00;;;;;;4994352;28;20460;-71
2023/01/02 03:36:00;;;;;;;2.33;1.47;;;8.70;98.00;;;;;;5011442;28;20462;-71
2023/01/02 03:38:32;;;;;;;1.87;1.60;;;8.70;98.00;;;;;;5011282;28;20461;-71
2023/01/02 03:41:07;;;;;;;2.90;1.40;;;8.90;98.00;;;;;;5011381;28;20468;-71
2023/01/02 03:43:36;;;;;;;1.90;1.50;;;8.80;98.00;;;;;;5011243;28;20491;-71
2023/01/02 03:46:09;;;;;;;2.93;1.60;;;8.70;98.00;;;;;;5011667;28;20464;-71
2023/01/02 03:48:43;;;;;;;2.23;1.50;;;8.60;98.00;;;;;;5011284;28;20478;-71
2023/01/02 03:51:11;;;;;;;1.60;1.23;;;8.60;98.00;;;;;;5011287;28;20468;-71
2023/01/02 03:53:40;;;;;;;9.73;1.60;;;8.50;98.00;;;;;;4993562;28;21013;-71
2023/01/02 03:56:20;;;;;;;2.10;1.80;;;8.50;98.00;;;;;;5011391;28;20449;-71
2023/01/02 03:58:52;;;;;;;2.13;1.50;;;8.30;98.00;;;;;;5011242;28;20462;-71
2023/01/02 04:01:32;;;;;;;3.10;1.70;;;8.30;98.00;;;;;;5011196;28;20456;-71
2023/01/02 04:04:08;;;;;;;5.60;1.73;;;8.30;98.00;;;;;;5011172;28;20491;-71
2023/01/02 04:06:41;;;;;;;13.03;2.00;;;8.40;98.00;;;;;;5011250;28;20463;-71
2023/01/02 04:09:13;;;;;;;10.90;1.60;;;8.50;98.00;;;;;;5011422;28;20491;-72
2023/01/02 04:11:42;;;;;;;1.93;1.50;;;8.50;98.00;;;;;;5011290;28;20458;-71
2023/01/02 04:14:15;;;;;;;4.57;1.87;;;8.30;98.00;;;;;;5011584;28;20454;-72
2023/01/02 04:16:45;;;;;;;1.80;1.50;;;8.30;98.00;;;;;;4993901;28;20459;-71
2023/01/02 04:19:19;;;;;;;1.50;1.40;;;8.30;98.00;;;;;;5011334;28;20543;-71
2023/01/02 04:21:50;;;;;;;3.47;1.47;;;8.40;98.00;;;;;;5011046;28;20451;-71
2023/01/02 04:24:21;;;;;;;2.60;1.70;;;8.40;98.00;;;;;;5010862;28;20500;-71
2023/01/02 04:26:51;;;;;;;2.27;1.70;;;8.50;98.00;;;;;;5010887;28;20455;-71
2023/01/02 04:29:18;;;;;;;2.03;1.70;;;8.40;98.00;;;;;;5014172;28;20464;-71
2023/01/02 04:31:50;;;;;;;2.73;1.90;;;8.30;98.00;;;;;;5014622;28;20464;-71
2023/01/02 04:34:19;;;;;;;2.07;1.60;;;8.30;98.00;;;;;;5014521;28;20458;-71
2023/01/02 04:36:46;;;;;;;2.60;1.83;;;8.30;98.00;;;;;;5014688;28;20876;-71
2023/01/02 04:39:14;;;;;;;3.53;1.80;;;8.30;98.00;;;;;;5014388;28;20953;-71
2023/01/02 04:41:41;;;;;;;2.53;1.70;;;8.30;98.00;;;;;;5014569;28;20525;-71
2023/01/02 04:44:08;;;;;;;2.40;1.70;;;8.30;98.00;;;;;;5014209;28;21001;-71
2023/01/02 04:46:35;;;;;;;2.63;1.60;;;8.20;98.00;;;;;;5014443;28;20458;-71
2023/01/02 04:49:02;;;;;;;2.47;1.47;;;8.20;98.00;;;;;;5014179;28;20470;-71
2023/01/02 04:51:31;;;;;;;2.03;1.70;;;8.20;98.00;;;;;;5014137;28;20455;-71
2023/01/02 04:53:58;;;;;;;2.67;1.90;;;8.30;98.00;;;;;;5014130;28;20468;-71
2023/01/02 04:56:25;;;;;;;3.27;2.10;;;8.30;98.00;;;;;;5013997;28;20467;-71
2023/01/02 04:58:52;;;;;;;2.20;1.67;;;8.20;98.00;;;;;;5014022;28;20457;-71
2023/01/02 05:01:20;;;;;;;3.10;1.70;;;8.20;98.00;;;;;;5014047;28;20523;-71
2023/01/02 05:03:50;;;;;;;1.80;1.40;;;8.20;98.00;;;;;;4996703;28;20489;-71
2023/01/02 05:06:17;;;;;;;2.70;1.30;;;8.10;98.00;;;;;;5013954;28;21010;-71
2023/01/02 05:08:45;;;;;;;1.80;1.40;;;8.10;98.00;;;;;;5014090;28;20455;-71
2023/01/02 05:11:14;;;;;;;3.27;2.13;;;8.00;98.00;;;;;;4996678;28;20457;-71
2023/01/02 05:13:41;;;;;;;2.73;1.67;;;7.90;98.00;;;;;;5014151;28;20447;-71
2023/01/02 05:16:10;;;;;;;3.20;1.90;;;7.90;98.00;;;;;;5013499;28;20523;-71
2023/01/02 05:18:37;;;;;;;1.50;1.30;;;8.00;98.00;;;;;;5013823;28;20805;-71
2023/01/02 05:23:47;;;;;;;3.57;1.47;;;8.10;98.00;;;;;;5013752;28;20976;-71
2023/01/02 05:23:58;;;;;;;4.50;1.53;;;8.00;98.00;;;;;;5013174;28;20475;-72
2023/01/02 05:26:25;;;;;;;2.60;1.43;;;8.10;98.00;;;;;;5013536;28;20494;-71
2023/01/02 05:28:54;;;;;;;3.50;1.83;;;8.00;98.00;;;;;;5013636;28;20470;-71
2023/01/02 05:31:21;;;;;;;2.63;1.43;;;7.90;98.00;;;;;;5013444;28;20459;-71
2023/01/02 05:33:52;;;;;;;2.33;1.37;;;8.00;98.00;;;;;;5013272;28;20958;-71
2023/01/02 05:36:20;;;;;;;1.40;1.20;;;8.00;98.00;;;;;;5013425;28;20491;-71
2023/01/02 05:38:47;;;;;;;3.63;1.90;;;7.90;98.00;;;;;;4994993;28;20464;-71
2023/01/02 05:41:16;;;;;;;2.27;1.70;;;7.80;98.00;;;;;;5012556;28;20463;-71
2023/01/02 05:43:43;;;;;;;2.60;1.67;;;7.70;98.00;;;;;;5013116;28;20553;-71
2023/01/02 05:46:13;;;;;;;2.37;1.40;;;7.70;98.00;;;;;;5012361;28;20470;-71
2023/01/02 05:48:40;;;;;;;2.00;1.50;;;7.80;98.00;;;;;;4993560;28;20461;-71
2023/01/02 05:51:09;;;;;;;2.73;1.50;;;7.80;98.00;;;;;;4993693;28;20671;-71
2023/01/02 05:53:37;;;;;;;2.90;1.30;;;7.70;98.00;;;;;;4993610;28;20467;-71
2023/01/02 05:56:05;;;;;;;2.00;1.40;;;7.90;98.00;;;;;;4993582;28;20800;-71
2023/01/02 05:58:35;;;;;;;2.60;1.40;;;7.90;98.00;;;;;;4993620;28;20518;-71
2023/01/02 06:01:06;;;;;;;2.07;1.47;;;7.90;98.00;;;;;;4993586;28;20821;-71
2023/01/02 06:03:33;;;;;;;1.97;1.13;;;7.80;98.00;;;;;;4975887;28;20853;-71
2023/01/02 06:06:04;;;;;;;2.17;1.50;;;7.80;98.00;;;;;;4993478;28;20772;-71
2023/01/02 06:08:32;;;;;;;3.13;1.60;;;7.80;98.00;;;;;;4993295;28;20470;-71
2023/01/02 06:10:59;;;;;;;1.73;1.47;;;7.70;98.00;;;;;;4993594;28;20469;-71
2023/01/02 06:13:28;;;;;;;2.80;1.60;;;7.80;98.00;;;;;;4993187;28;20881;-71
2023/01/02 06:16:00;;;;;;;1.87;1.30;;;7.80;98.00;;;;;;4993090;28;20463;-71
2023/01/02 06:18:28;;;;;;;1.60;1.23;;;7.80;98.00;;;;;;4992918;28;20951;-71
2023/01/02 06:20:58;;;;;;;2.90;1.53;;;7.80;98.00;;;;;;4992967;28;20456;-71
2023/01/02 06:23:26;;;;;;;1.40;1.33;;;7.70;98.00;;;;;;4992848;28;20495;-71
2023/01/02 06:25:53;;;;;;;2.07;1.30;;;7.70;98.00;;;;;;4992702;28;20473;-71
2023/01/02 06:28:20;;;;;;;3.83;1.93;;;7.80;98.00;;;;;;4992758;28;20464;-71
2023/01/02 06:30:47;;;;;;;1.60;1.30;;;7.70;98.00;;;;;;4992808;28;20464;-71
2023/01/02 06:33:16;;;;;;;3.03;1.70;;;7.70;98.00;;;;;;4992635;28;20822;-71
2023/01/02 06:35:43;;;;;;;2.03;1.50;;;7.60;98.00;;;;;;4992396;28;20850;-71
2023/01/02 06:38:10;;;;;;;1.70;1.37;;;7.60;98.00;;;;;;4992557;28;20861;-71
2023/01/02 06:40:37;;;;;;;2.23;1.50;;;7.70;98.00;;;;;;4992605;28;20841;-71
2023/01/02 06:43:04;;;;;;;3.03;1.73;;;7.70;98.00;;;;;;4992555;28;20483;-71
2023/01/02 06:45:39;;;;;;;3.53;1.57;;;7.60;98.00;;;;;;4975339;28;20904;-71
2023/01/02 06:48:06;;;;;;;1.80;1.43;;;7.60;98.00;;;;;;4976185;28;20462;-71
2023/01/02 06:50:39;;;;;;;4.17;2.17;;;7.50;98.00;;;;;;4992104;28;20871;-71
2023/01/02 06:53:06;;;;;;;2.10;1.30;;;7.40;98.00;;;;;;4992418;28;20498;-71
2023/01/02 06:55:35;;;;;;;2.43;1.23;;;7.40;98.00;;;;;;4992653;28;20852;-71
2023/01/02 06:58:02;;;;;;;3.63;1.70;;;7.40;98.00;;;;;;4992278;28;20760;-71
2023/01/02 07:00:29;;;;;;;1.40;1.30;;;7.50;98.00;;;;;;4992345;28;20803;-74
2023/01/02 07:02:56;;;;;;;1.50;1.20;;;7.50;98.00;;;;;;4992391;28;20659;-76
2023/01/02 07:05:23;;;;;;;1.80;1.50;;;7.60;98.00;;;;;;4974910;28;20993;-74
2023/01/02 07:07:51;;;;;;;1.40;1.30;;;7.60;98.00;;;;;;4992448;28;20671;-73
2023/01/02 07:10:19;;;;;;;1.60;1.30;;;7.40;98.00;;;;;;4992297;28;20464;-75
2023/01/02 07:12:46;;;;;;;2.87;1.50;;;7.50;98.00;;;;;;4992192;28;20465;-75
2023/01/02 07:15:13;;;;;;;2.93;1.93;;;7.40;98.00;;;;;;4992089;28;20518;-74
2023/01/02 07:17:40;;;;;;;1.77;1.40;;;7.60;98.00;;;;;;4992194;28;20467;-72
2023/01/02 07:20:08;;;;;;;1.60;1.40;;;7.70;98.00;;;;;;4992033;28;20475;-72
2023/01/02 07:22:35;;;;;;;1.63;1.63;;;7.60;98.00;;;;;;4992120;28;20814;-71
2023/01/02 07:25:04;;;;;;;1.93;1.60;;;7.80;98.00;;;;;;4992081;28;20492;-70
2023/01/02 07:27:32;;;;;;;1.73;1.50;;;7.70;98.00;;;;;;4991744;28;20456;-71
2023/01/02 07:29:59;;;;;;;1.77;1.50;;;7.80;98.00;;;;;;4992018;28;20862;-68
2023/01/02 07:32:27;;;;;;;1.83;1.47;;;7.80;98.00;;;;;;4991877;28;20531;-70
2023/01/02 07:34:59;;;;;;;1.60;1.30;;;7.80;98.00;;;;;;4991908;28;20463;-69
2023/01/02 07:37:26;;;;;;;2.97;2.03;;;7.80;98.00;;;;;;4991725;28;20511;-70
2023/01/02 07:39:53;;;;;;;4.33;2.40;;;7.80;98.00;;;;;;4991825;28;21036;-69
2023/01/02 07:42:22;;;;;;;3.80;2.30;;;7.90;98.00;;;;;;4991513;28;20467;-69
2023/01/02 07:44:49;;;;;;;3.37;1.93;;;8.00;98.00;;;;;;4991733;28;20491;-68
2023/01/02 07:47:16;;;;;;;2.97;1.70;;;8.00;98.00;;;;;;4991764;28;20471;-70
2023/01/02 07:49:43;;;;;;;1.80;1.47;;;8.10;98.00;;;;;;4991730;28;20457;-68
2023/01/02 07:52:11;;;;;;;2.03;1.73;;;8.10;98.00;;;;;;4991663;28;20827;-70
2023/01/02 07:54:39;;;;;;;2.23;1.37;;;7.90;98.00;;;;;;4991075;28;20880;-68
2023/01/02 07:57:06;;;;;;;5.23;1.60;;;7.70;98.00;;;;;;4991730;28;20462;-68
2023/01/02 07:59:35;;;;;;;2.93;1.90;;;7.60;98.00;;;;;;4991834;28;20464;-70
2023/01/02 08:02:02;;;;;;;4.83;2.33;;;7.70;98.00;;;;;;4991794;28;20814;-68
2023/01/02 08:04:31;;;;;;;6.00;2.80;;;7.90;98.00;;;;;;4981330;28;20484;-70
2023/01/02 08:06:58;;;;;;;4.77;2.50;;;7.90;98.00;;;;;;4987518;28;20448;-69
2023/01/02 08:09:25;;;;;;;4.67;2.33;;;7.80;98.00;;;;;;4995533;28;20962;-69
2023/01/02 08:11:53;;;;;;;2.03;1.57;;;7.90;98.00;;;;;;4979062;28;20464;-69
2023/01/02 08:14:21;;;;;;;2.57;1.63;;;8.00;98.00;;;;;;4995845;28;20495;-68
2023/01/02 08:16:49;;;;;;;6.83;1.70;;;8.10;98.00;;;;;;4978559;28;20464;-68
2023/01/02 08:19:17;;;;;;;3.13;1.13;;;8.00;98.00;;;;;;4995891;28;20470;-70
2023/01/02 08:21:45;;;;;;;2.30;1.70;;;8.10;98.00;;;;;;4995965;28;20810;-69
2023/01/02 08:24:12;;;;;;;1.93;1.50;;;8.10;98.00;;;;;;4991017;28;20524;-69
2023/01/02 08:26:39;;;;;;;2.70;1.57;;;8.30;98.00;;;;;;4982245;28;20970;-68
2023/01/02 08:29:08;;;;;;;2.83;2.00;;;8.40;98.00;;;;;;4973406;28;20453;-69
2023/01/02 08:31:35;;;;;;;6.80;2.30;;;8.60;98.00;;;;;;4982966;28;20460;-72
2023/01/02 08:34:04;;;;;;;3.80;2.17;;;8.60;98.00;;;;;;4976112;28;21093;-72
2023/01/02 08:36:31;;;;;;;3.20;2.10;;;8.50;98.00;;;;;;4976227;28;20517;-72
2023/01/02 08:38:58;;;;;;;5.27;2.53;;;8.60;98.00;;;;;;4976080;28;20507;-72
2023/01/02 08:41:32;;;;;;;3.73;2.40;;;8.70;98.00;;;;;;4975645;28;20959;-72
2023/01/02 08:43:59;;;;;;;4.63;3.00;;;8.70;98.00;;;;;;4976202;28;20467;-72
2023/01/02 08:46:27;;;;;;;3.97;2.20;;;8.50;98.00;;;;;;4976043;28;20527;-72
2023/01/02 08:48:54;;;;;;;4.30;2.10;;;8.40;98.00;;;;;;4975979;28;20460;-72
2023/01/02 08:51:30;;;;;;;3.80;2.50;;;8.30;98.00;;;;;;4975804;28;20467;-72
2023/01/02 08:53:57;;;;;;;5.60;2.20;;;8.30;98.00;;;;;;4975879;28;20926;-71
2023/01/02 08:56:26;;;;;;;4.87;2.00;;;8.30;98.00;;;;;;4975973;28;20460;-72
2023/01/02 08:58:56;;;;;;;4.70;2.20;;;8.40;98.00;;;;;;4975828;28;20461;-72
2023/01/02 09:01:24;;;;;;;3.43;1.80;;;8.50;98.00;;;;;;4975939;28;20456;-71
2023/01/02 09:03:52;;;;;;;4.83;1.97;;;8.60;98.00;;;;;;4975883;28;20841;-72
2023/01/02 09:06:19;;;;;;;2.97;1.93;;;8.80;98.00;;;;;;4975808;28;21022;-72
2023/01/02 09:08:48;;;;;;;3.63;2.37;;;9.00;98.00;;;;;;4975449;28;20826;-71
2023/01/02 09:11:17;;;;;;;5.33;3.20;;;9.00;98.00;;;;;;4975557;28;20468;-72
2023/01/02 09:13:44;;;;;;;3.70;2.43;;;9.20;98.00;;;;;;4975012;28;20944;-72
2023/01/02 09:16:12;;;;;;;3.63;2.73;;;9.30;98.00;;;;;;4975430;28;20468;-72
2023/01/02 09:18:39;;;;;;;9.00;3.97;;;9.30;98.00;;;;;;4975421;28;20533;-72
2023/01/02 09:21:07;;;;;;;4.20;2.47;;;9.40;98.00;;;;;;4975398;28;20454;-72
2023/01/02 09:23:34;;;;;;;6.03;2.93;;;9.40;98.00;;;;;;4975431;28;20451;-72
2023/01/02 09:26:05;;;;;;;4.33;2.67;;;9.30;98.00;;;;;;4975279;28;20482;-72
2023/01/02 09:28:35;;;;;;;5.10;2.27;;;9.20;98.00;;;;;;4975635;28;20468;-72
2023/01/02 09:31:06;;;;;;;5.87;2.67;;;9.20;98.00;;;;;;4975346;28;20824;-72
2023/01/02 09:33:33;;;;;;;3.70;2.37;;;9.30;98.00;;;;;;4975281;28;20461;-72
2023/01/02 09:36:02;;;;;;;6.10;2.23;;;9.30;98.00;;;;;;4975188;28;20462;-72
2023/01/02 09:38:29;;;;;;;5.93;2.33;;;9.20;98.00;;;;;;4975124;28;20501;-72
2023/01/02 09:40:57;;;;;;;6.70;3.03;;;9.20;98.00;;;;;;4975031;28;20464;-72
2023/01/02 09:43:31;;;;;;;3.43;2.33;;;9.30;98.00;;;;;;4975066;28;20469;-72
2023/01/02 09:46:00;;;;;;;2.50;2.00;;;9.30;98.00;;;;;;4974960;28;20523;-72
2023/01/02 09:48:35;;;;;;;5.07;2.73;;;9.50;98.00;;;;;;4975084;28;20458;-72
2023/01/02 09:51:03;;;;;;;3.70;2.00;;;9.50;98.00;;;;;;4975203;28;20459;-72
2023/01/02 09:53:31;;;;;;;4.27;2.57;;;9.70;98.00;;;;;;4974986;28;20465;-72
2023/01/02 09:56:06;;;;;;;9.37;2.13;;;9.70;98.00;;;;;;4974976;28;20467;-72
2023/01/02 09:58:45;;;;;;;5.23;1.90;;;9.70;98.00;;;;;;4975091;28;20469;-72
2023/01/02 10:01:19;;;;;;;4.03;2.63;;;9.70;98.00;;;;;;4974844;28;20460;-72
2023/01/02 10:03:54;;;;;;;9.93;2.60;;;9.90;98.00;;;;;;4974763;28;20462;-72
2023/01/02 10:06:23;;;;;;;6.43;2.50;;;10.00;98.00;;;;;;4974679;28;20491;-72
2023/01/02 10:09:01;;;;;;;5.07;2.80;;;9.80;98.00;;;;;;4974585;28;20507;-72
2023/01/02 10:11:48;;;;;;;5.57;2.70;;;9.80;98.00;;;;;;4974302;28;20459;-72
2023/01/02 10:14:27;;;;;;;5.17;2.37;;;9.90;98.00;;;;;;4974573;28;20488;-72
2023/01/02 10:16:57;;;;;;;6.77;3.13;;;10.10;98.00;;;;;;4974533;28;20519;-72
2023/01/02 10:19:29;;;;;;;3.00;2.63;;;10.30;98.00;;;;;;4974591;28;20449;-72
2023/01/02 10:22:00;;;;;;;3.30;2.37;;;10.30;98.00;;;;;;4974432;28;20513;-71
2023/01/02 10:24:37;;;;;;;4.70;2.50;;;10.30;98.00;;;;;;4974135;28;20457;-71
2023/01/02 10:27:09;;;;;;;4.00;2.63;;;10.30;98.00;;;;;;4973701;28;20511;-72
2023/01/02 10:29:43;;;;;;;7.83;2.90;;;10.30;98.00;;;;;;4974182;28;20461;-72
2023/01/02 10:32:15;;;;;;;3.80;2.70;;;10.30;98.00;;;;;;4974200;28;20463;-72
2023/01/02 10:34:48;;;;;;;4.37;3.00;;;10.40;98.00;;;;;;4974129;28;20462;-72
2023/01/02 10:37:16;;;;;;;4.23;2.70;;;10.40;98.00;;;;;;4974151;28;20465;-72
2023/01/02 10:39:46;;;;;;;4.17;2.40;;;10.60;98.00;;;;;;4974051;28;20951;-72
2023/01/02 10:42:15;;;;;;;2.73;1.67;;;10.70;98.00;;;;;;4973948;28;20967;-72
2023/01/02 10:44:47;;;;;;;4.63;1.90;;;11.10;98.00;;;;;;4974141;28;20468;-72
2023/01/02 10:47:21;;;;;;;5.03;1.90;;;11.50;98.00;;;;;;4973961;28;20515;-72
2023/01/02 10:49:49;;;;;;;2.93;2.30;;;11.90;98.00;;;;;;4973995;28;20494;-72
2023/01/02 10:52:22;;;;;;;11.10;2.33;;;12.10;98.00;;;;;;4973983;28;20773;-72
2023/01/02 10:54:52;;;;;;;6.83;2.40;;;12.30;98.00;;;;;;4974236;28;20550;-72
2023/01/02 10:57:24;;;;;;;4.63;1.73;;;12.40;98.00;;;;;;4973836;28;20856;-72
2023/01/02 11:00:02;;;;;;;3.57;1.67;;;12.60;98.00;;;;;;4974075;28;20476;-72
2023/01/02 11:02:37;;;;;;;2.27;1.50;;;12.90;98.00;;;;;;4973520;28;20548;-72
2023/01/02 11:05:06;;;;;;;2.27;1.50;;;13.20;98.00;;;;;;4973672;28;20457;-72
2023/01/02 11:07:36;;;;;;;3.07;1.80;;;13.50;98.00;;;;;;4973370;28;20528;-72
2023/01/02 11:10:04;;;;;;;7.10;2.20;;;14.00;98.00;;;;;;4973666;28;20462;-72
2023/01/02 11:12:32;;;;;;;11.83;2.70;;;14.00;98.00;;;;;;4973347;28;20467;-72
2023/01/02 11:15:22;;;;;;;4.40;2.10;;;13.90;98.00;;;;;;4973366;28;20554;-72
2023/01/02 11:17:49;;;;;;;8.00;2.60;;;13.80;98.00;;;;;;4973574;28;20470;-72
2023/01/02 11:20:24;;;;;;;4.50;2.70;;;13.80;98.00;;;;;;4973402;28;20456;-72
2023/01/02 11:22:54;;;;;;;5.13;2.50;;;13.70;98.00;;;;;;4956840;28;20557;-72
2023/01/02 11:25:25;;;;;;;3.53;2.10;;;13.70;98.00;;;;;;4973327;28;20478;-72
2023/01/02 11:27:57;;;;;;;3.43;1.90;;;13.80;98.00;;;;;;4973672;28;20460;-72
2023/01/02 11:30:36;;;;;;;2.03;1.90;;;14.00;98.00;;;;;;4973397;28;20460;-72
2023/01/02 11:33:08;;;;;;;4.83;1.53;;;14.10;98.00;;;;;;4973680;28;20476;-72
2023/01/02 11:35:44;;;;;;;4.53;2.10;;;14.30;98.00;;;;;;4973359;28;20459;-72
2023/01/02 11:38:16;;;;;;;4.23;2.37;;;14.50;98.00;;;;;;4973237;28;20551;-72
2023/01/02 11:40:59;;;;;;;2.80;2.17;;;14.50;98.00;;;;;;4973277;28;20471;-72
2023/01/02 11:43:48;;;;;;;3.20;2.03;;;14.50;98.00;;;;;;4973250;28;21309;-72
2023/01/02 11:46:30;;;;;;;3.60;2.13;;;14.70;98.00;;;;;;4973262;28;20520;-72
2023/01/02 11:49:03;;;;;;;5.03;1.87;;;14.70;98.00;;;;;;4973289;28;20558;-72
2023/01/02 11:51:33;;;;;;;5.30;1.63;;;14.80;98.00;;;;;;4973317;28;20492;-72
2023/01/02 11:54:04;;;;;;;2.93;1.70;;;14.90;98.00;;;;;;4973076;28;20451;-72
2023/01/02 11:56:36;;;;;;;2.07;1.40;;;15.00;98.00;;;;;;4973287;28;20890;-72
2023/01/02 11:59:06;;;;;;;3.07;1.60;;;15.10;98.00;;;;;;4956362;28;20812;-72
2023/01/02 12:01:48;;;;;;;2.77;1.60;;;15.20;98.00;;;;;;4972982;28;20483;-72
2023/01/02 12:04:16;;;;;;;5.00;1.93;;;15.50;97.90;;;;;;4972951;28;20530;-72
2023/01/02 12:06:56;;;;;;;2.40;1.43;;;15.80;96.50;;;;;;4972879;28;20481;-72
2023/01/02 12:09:30;;;;;;;2.27;1.43;;;15.90;97.00;;;;;;4972920;28;20468;-72
2023/01/02 12:12:10;;;;;;;5.13;1.63;;;16.00;96.40;;;;;;4972956;28;20939;-72
2023/01/02 12:15:02;;;;;;;5.23;1.90;;;16.00;95.60;;;;;;4972880;28;20955;-72
2023/01/02 12:17:40;;;;;;;2.03;1.57;;;16.00;95.70;;;;;;4972940;28;20457;-72
2023/01/02 12:20:24;;;;;;;4.90;1.60;;;16.00;94.70;;;;;;4972868;28;20511;-72
2023/01/02 12:23:30;;;;;;;3.93;1.90;;;16.00;95.10;;;;;;4972951;28;20796;-72
2023/01/02 12:26:07;;;;;;;3.97;2.07;;;16.00;94.40;;;;;;4933932;28;20509;-72
2023/01/02 12:29:19;;;;;;;1.70;1.50;;;16.00;95.70;;;;;;4972798;28;20469;-72
2023/01/02 12:32:21;;;;;;;2.00;1.67;;;16.00;95.10;;;;;;4972953;28;20465;-72
2023/01/02 12:35:07;;;;;;;2.00;1.70;;;16.00;95.40;;;;;;4956603;28;20460;-72
2023/01/02 12:37:43;;;;;;;1.70;1.70;;;16.20;95.60;;;;;;4972779;28;20460;-72
2023/01/02 12:40:32;;;;;;;5.90;1.83;;;16.40;95.40;;;;;;4972843;28;20461;-72
2023/01/02 12:43:20;;;;;;;2.37;1.63;;;16.60;95.60;;;;;;4972956;28;20480;-72
2023/01/02 12:45:55;;;;;;;3.20;1.80;;;16.50;95.60;;;;;;4972771;28;20492;-72
2023/01/02 12:48:43;;;;;;;3.63;2.03;;;16.40;95.70;;;;;;4973102;28;20480;-72
2023/01/02 12:51:19;;;;;;;9.83;1.77;;;16.30;96.00;;;;;;4976195;28;20457;-72
2023/01/02 12:54:08;;;;;;;2.80;1.87;;;16.20;96.20;;;;;;4976025;28;21003;-72
2023/01/02 12:56:43;;;;;;;4.37;1.90;;;16.20;96.20;;;;;;4975984;28;20453;-72
2023/01/02 12:59:28;;;;;;;3.47;2.00;;;16.10;96.80;;;;;;4975841;28;20465;-72
2023/01/02 13:02:04;;;;;;;2.17;1.73;;;16.10;97.10;;;;;;4975952;28;20465;-72
2023/01/02 13:04:36;;;;;;;4.03;1.80;;;16.00;97.30;;;;;;4975620;28;20477;-72
2023/01/02 13:07:12;;;;;;;6.13;1.93;;;16.00;97.60;;;;;;4975747;28;20493;-72
2023/01/02 13:09:42;;;;;;;3.00;1.90;;;16.00;97.20;;;;;;4975774;28;20519;-72
2023/01/02 13:12:13;;;;;;;2.03;1.80;;;15.90;97.40;;;;;;4975723;28;20489;-72
2023/01/02 13:14:44;;;;;;;4.53;2.00;;;15.90;97.80;;;;;;4975337;28;20476;-72
2023/01/02 13:17:44;;;;;;;2.93;1.83;;;15.80;97.80;;;;;;4975611;28;20932;-72